Time;durP1;ratioP1;P1;durP2;ratioP2;P2;SDS_P1;SDS_P2;PMS_P1;PMS_P2;Temp;Humidity;BMP_temperature;BMP_pressure;BME280_temperature;BME280_humidity;BME280_pressure;Samples;Min_cycle;Max_cycle;Signal;HPM_P1;HPM_P2
2022/06/11 00:00:01;;;;;;;9.32;6.45;;;;;;;21.93;56.86;99915.75;4351904;32;33445;-89
2022/06/11 00:02:30;;;;;;;10.40;7.65;;;;;;;21.90;57.14;99907.91;4364176;32;33803;-90
2022/06/11 00:04:58;;;;;;;9.77;7.28;;;;;;;21.82;57.66;99913.22;4363835;32;34373;-89
2022/06/11 00:07:26;;;;;;;10.18;7.53;;;;;;;21.77;58.07;99911.25;4351293;32;32673;-89
2022/06/11 00:09:54;;;;;;;9.25;6.45;;;;;;;21.85;57.90;99902.31;4363676;32;32009;-90
2022/06/11 00:12:22;;;;;;;9.68;6.80;;;;;;;21.96;57.26;99903.16;4363628;32;32240;-91
2022/06/11 00:14:50;;;;;;;15.30;7.65;;;;;;;21.88;57.39;99900.94;4363669;32;35145;-89
2022/06/11 00:17:22;;;;;;;9.80;7.22;;;;;;;21.81;58.03;99900.34;4363514;32;32389;-89
2022/06/11 00:19:52;;;;;;;11.77;7.12;;;;;;;21.80;58.17;99904.25;4363361;32;31984;-90
2022/06/11 00:22:21;;;;;;;12.45;6.40;;;;;;;21.81;58.51;99904.00;4351380;32;32261;-89
2022/06/11 00:24:49;;;;;;;10.50;7.12;;;;;;;21.76;58.92;99915.16;4351177;32;33749;-89
2022/06/11 00:27:18;;;;;;;9.13;6.87;;;;;;;21.82;58.69;99914.06;4363311;32;33386;-89
2022/06/11 00:29:46;;;;;;;10.88;6.70;;;;;;;21.83;58.52;99909.31;4363476;32;31932;-89
2022/06/11 00:32:15;;;;;;;10.70;7.25;;;;;;;21.85;57.92;99899.53;4363600;32;33995;-90
2022/06/11 00:34:44;;;;;;;9.35;7.30;;;;;;;21.82;57.69;99899.25;4351418;32;34551;-90
2022/06/11 00:37:14;;;;;;;11.95;6.60;;;;;;;21.85;57.60;99905.12;4363380;32;33718;-89
2022/06/11 00:39:43;;;;;;;10.77;6.80;;;;;;;21.61;58.10;99903.94;4363434;32;34259;-90
2022/06/11 00:42:22;;;;;;;12.70;8.00;;;;;;;21.66;58.08;99921.56;4366029;32;33928;-89
2022/06/11 00:45:15;;;;;;;11.00;6.62;;;;;;;21.65;58.38;99919.03;4365591;32;34556;-89
2022/06/11 00:47:47;;;;;;;9.70;7.30;;;;;;;21.77;58.40;99927.16;4353180;32;32455;-89
2022/06/11 00:50:25;;;;;;;9.07;7.05;;;;;;;21.73;58.12;99918.50;4365611;32;34234;-87
2022/06/11 00:52:55;;;;;;;10.27;7.60;;;;;;;21.71;57.98;99929.12;4365267;32;33308;-90
2022/06/11 00:55:32;;;;;;;11.73;7.07;;;;;;;21.49;58.85;99920.97;4365174;32;32910;-91
2022/06/11 00:58:06;;;;;;;11.27;7.32;;;;;;;21.67;58.36;99917.66;4365562;32;33972;-90
2022/06/11 01:00:41;;;;;;;9.48;7.30;;;;;;;21.70;58.32;99917.09;4353156;32;31946;-90
2022/06/11 01:03:13;;;;;;;9.43;6.70;;;;;;;21.65;58.32;99919.03;4353257;32;32453;-90
2022/06/11 01:05:45;;;;;;;10.38;6.93;;;;;;;21.67;58.10;99916.81;4353193;32;35444;-90
2022/06/11 01:08:16;;;;;;;9.88;7.12;;;;;;;21.64;58.34;99920.16;4353107;32;34098;-90
2022/06/11 01:11:01;;;;;;;12.52;7.50;;;;;;;21.51;58.96;99915.09;4353055;32;33235;-88
2022/06/11 01:14:08;;;;;;;9.80;7.50;;;;;;;21.53;59.02;99916.50;4353088;32;33567;-89
2022/06/11 01:16:44;;;;;;;10.80;7.62;;;;;;;21.60;59.02;99917.06;4352451;32;33669;-90
2022/06/11 01:19:49;;;;;;;10.32;7.50;;;;;;;21.48;59.01;99913.69;4353136;32;34236;-90
2022/06/11 01:22:56;;;;;;;9.10;6.75;;;;;;;21.56;58.53;99909.53;4365579;32;33389;-86
2022/06/11 01:25:32;;;;;;;10.70;7.37;;;;;;;21.67;57.96;99914.03;4365346;32;34802;-86
2022/06/11 01:28:37;;;;;;;13.20;7.60;;;;;;;21.56;58.35;99915.94;4365712;32;34343;-86
2022/06/11 01:31:13;;;;;;;13.70;7.93;;;;;;;21.44;59.22;99914.56;4352994;32;34338;-85
2022/06/11 01:33:52;;;;;;;12.40;7.15;;;;;;;21.45;59.49;99917.03;4365289;32;33478;-85
2022/06/11 01:36:41;;;;;;;10.27;6.80;;;;;;;21.50;58.77;99919.00;4365303;32;33852;-85
2022/06/11 01:39:20;;;;;;;11.63;6.87;;;;;;;21.55;58.33;99913.44;4365180;32;35357;-86
2022/06/11 01:41:53;;;;;;;10.25;7.45;;;;;;;21.56;58.22;99920.69;4352732;32;33286;-84
2022/06/11 01:44:28;;;;;;;12.18;7.85;;;;;;;21.50;58.22;99922.63;4364976;32;31962;-85
2022/06/11 01:46:57;;;;;;;10.50;7.53;;;;;;;21.48;58.20;99924.03;4352971;32;33547;-86
2022/06/11 01:49:27;;;;;;;10.18;7.37;;;;;;;21.37;58.25;99924.03;4365416;32;34776;-86
2022/06/11 01:52:32;;;;;;;11.43;7.50;;;;;;;21.41;58.66;99924.31;4364597;32;34001;-86
2022/06/11 01:55:34;;;;;;;8.70;6.97;;;;;;;21.33;58.94;99925.69;4352583;32;33060;-86
2022/06/11 01:58:10;;;;;;;10.65;7.15;;;;;;;21.46;58.31;99927.09;4352708;32;32251;-86
2022/06/11 02:00:51;;;;;;;11.25;7.70;;;;;;;21.30;58.28;99930.97;4352648;32;32891;-85
2022/06/11 02:03:40;;;;;;;9.43;7.03;;;;;;;21.30;58.29;99936.56;4352593;32;33407;-85
2022/06/11 02:06:44;;;;;;;11.57;7.22;;;;;;;21.20;58.47;99936.47;4352536;32;33410;-84
2022/06/11 02:09:36;;;;;;;9.80;7.37;;;;;;;21.29;58.38;99944.09;4351216;32;32450;-84
2022/06/11 02:12:17;;;;;;;10.27;7.55;;;;;;;21.49;57.72;99936.88;4365060;32;34520;-85
2022/06/11 02:14:54;;;;;;;10.98;7.50;;;;;;;21.21;58.36;99938.16;4364961;32;33997;-84
2022/06/11 02:17:25;;;;;;;11.80;6.78;;;;;;;21.24;58.48;99937.66;4365096;32;33542;-86
2022/06/11 02:20:00;;;;;;;10.00;7.07;;;;;;;21.26;58.54;99944.62;4364923;32;33866;-86
2022/06/11 02:22:33;;;;;;;12.35;7.37;;;;;;;21.37;57.98;99942.72;4364322;32;32788;-86
2022/06/11 02:25:15;;;;;;;9.25;7.12;;;;;;;21.16;58.75;99938.97;4364768;32;34050;-85
2022/06/11 02:27:48;;;;;;;9.60;7.55;;;;;;;21.13;59.53;99939.53;4365165;32;33231;-85
2022/06/11 02:30:22;;;;;;;11.12;7.37;;;;;;;21.15;59.51;99940.09;4352668;32;34384;-85
2022/06/11 02:32:51;;;;;;;10.00;6.68;;;;;;;21.23;59.82;99944.34;4352945;32;34454;-84
2022/06/11 02:35:43;;;;;;;9.82;7.15;;;;;;;21.09;59.02;99945.91;4364864;32;34786;-85
2022/06/11 02:38:14;;;;;;;10.63;6.87;;;;;;;21.27;57.45;99946.31;4364834;32;33479;-84
2022/06/11 02:40:46;;;;;;;9.82;7.40;;;;;;;21.01;57.80;99934.16;4352478;32;33228;-85
2022/06/11 02:43:17;;;;;;;9.10;6.43;;;;;;;20.94;57.95;99947.50;4364995;32;34558;-85
2022/06/11 02:45:47;;;;;;;9.90;7.07;;;;;;;20.96;57.96;99947.25;4364553;32;34207;-85
2022/06/11 02:48:15;;;;;;;10.07;7.12;;;;;;;21.01;57.74;99952.84;4352349;32;32990;-85
2022/06/11 02:50:46;;;;;;;8.85;6.78;;;;;;;20.98;57.86;99964.56;4352657;32;32196;-84
2022/06/11 02:53:15;;;;;;;9.50;7.30;;;;;;;20.88;58.12;99961.72;4364503;32;32870;-85
2022/06/11 02:55:45;;;;;;;12.40;7.43;;;;;;;20.96;58.09;99964.00;4364460;32;31905;-85
2022/06/11 02:58:14;;;;;;;9.85;7.12;;;;;;;21.00;58.03;99970.72;4364567;32;32268;-85
2022/06/11 03:00:47;;;;;;;11.18;7.53;;;;;;;20.87;58.39;99962.81;4352198;32;33210;-86
2022/06/11 03:03:15;;;;;;;10.32;6.60;;;;;;;20.88;58.32;99964.50;4351942;32;35397;-84
2022/06/11 03:05:44;;;;;;;9.98;7.40;;;;;;;20.97;58.01;99968.47;4363825;32;33611;-85
2022/06/11 03:08:14;;;;;;;9.48;7.22;;;;;;;20.89;58.31;99966.19;4364285;32;31957;-85
2022/06/11 03:10:44;;;;;;;9.32;6.57;;;;;;;20.94;58.08;99975.41;4364685;32;33687;-84
2022/06/11 03:13:14;;;;;;;9.38;7.57;;;;;;;20.94;58.16;99969.00;4364529;32;34950;-85
2022/06/11 03:15:44;;;;;;;12.45;7.47;;;;;;;20.86;58.30;99969.50;4352220;32;34140;-86
2022/06/11 03:18:13;;;;;;;11.93;7.80;;;;;;;20.85;58.31;99962.25;4352292;32;33425;-86
2022/06/11 03:20:41;;;;;;;14.43;8.40;;;;;;;20.84;58.44;99963.34;4364274;32;33047;-84
2022/06/11 03:23:09;;;;;;;13.10;8.00;;;;;;;20.86;58.51;99964.78;4364419;32;34348;-84
2022/06/11 03:25:40;;;;;;;10.82;8.00;;;;;;;20.81;58.59;99963.91;4364467;32;33816;-85
2022/06/11 03:28:12;;;;;;;11.20;8.18;;;;;;;20.68;58.96;99963.28;4363999;32;32203;-84
2022/06/11 03:30:40;;;;;;;9.70;7.35;;;;;;;20.91;58.29;99972.31;4364466;32;33646;-85
2022/06/11 03:33:14;;;;;;;10.95;8.05;;;;;;;20.85;58.43;99984.56;4365065;32;34298;-85
2022/06/11 03:35:44;;;;;;;11.00;8.43;;;;;;;20.77;58.75;99982.31;4352036;32;33974;-85
2022/06/11 03:38:13;;;;;;;11.00;6.95;;;;;;;20.58;59.75;99985.53;4364360;32;33405;-85
2022/06/11 03:40:45;;;;;;;11.30;8.05;;;;;;;20.87;58.60;99987.94;4352005;32;33548;-85
2022/06/11 03:43:14;;;;;;;12.52;8.32;;;;;;;20.72;59.33;99994.28;4364240;32;34772;-85
2022/06/11 03:45:42;;;;;;;11.30;8.20;;;;;;;20.88;59.40;99995.19;4364132;32;34942;-85
2022/06/11 03:48:10;;;;;;;9.88;7.87;;;;;;;20.82;60.14;99993.47;4364136;32;34326;-85
2022/06/11 03:50:39;;;;;;;10.90;7.68;;;;;;;20.93;59.75;99987.69;4351552;32;32315;-85
2022/06/11 03:53:08;;;;;;;10.73;8.02;;;;;;;20.88;59.33;99976.50;4352130;32;34529;-85
2022/06/11 03:55:38;;;;;;;11.65;7.32;;;;;;;20.84;59.08;99980.09;4363441;32;32551;-85
2022/06/11 03:58:07;;;;;;;11.75;7.80;;;;;;;20.75;59.43;99984.53;4351893;32;34336;-85
2022/06/11 04:03:24;;;;;;;9.75;7.45;;;;;;;20.79;60.15;99988.47;4353417;32;33449;-86
2022/06/11 04:05:53;;;;;;;10.63;7.57;;;;;;;20.83;60.34;99989.56;4363813;32;34051;-92
2022/06/11 04:08:22;;;;;;;12.75;7.97;;;;;;;20.86;59.70;99987.09;4351412;32;32087;-89
2022/06/11 04:10:52;;;;;;;8.07;5.95;;;;;;;20.94;59.66;99988.53;4363988;32;33823;-86
2022/06/11 04:13:22;;;;;;;9.95;7.20;;;;;;;21.03;59.48;99986.91;4351445;32;34567;-89
2022/06/11 04:15:50;;;;;;;11.20;7.37;;;;;;;21.14;61.06;99988.66;4364981;32;34279;-87
2022/06/11 04:18:40;;;;;;;9.35;7.30;;;;;;;21.13;61.14;99983.34;4365624;32;32073;-87
2022/06/11 04:21:13;;;;;;;10.02;6.97;;;;;;;21.34;61.02;99985.16;4365775;32;34467;-87
2022/06/11 04:23:44;;;;;;;8.85;6.78;;;;;;;21.27;61.85;99985.41;4365815;32;35118;-87
2022/06/11 04:26:16;;;;;;;9.98;7.10;;;;;;;21.47;61.16;99983.78;4353344;32;32492;-87
2022/06/11 04:28:43;;;;;;;9.18;6.37;;;;;;;;;;4365761;32;34404;-87
2022/06/11 04:31:11;;;;;;;9.13;6.90;;;;;;;21.76;59.02;99976.63;4353316;32;32818;-88
2022/06/11 04:33:39;;;;;;;11.05;7.32;;;;;;;21.73;58.19;99976.34;4365541;32;34000;-87
2022/06/11 04:36:07;;;;;;;9.75;7.55;;;;;;;21.70;57.59;99983.31;4341220;32;33436;-86
2022/06/11 04:38:38;;;;;;;8.82;6.40;;;;;;;21.83;57.25;99980.00;4365735;32;33366;-85
2022/06/11 04:41:09;;;;;;;8.27;6.03;;;;;;;21.71;56.86;99976.59;4365143;32;33092;-86
2022/06/11 04:43:41;;;;;;;9.88;6.20;;;;;;;21.83;56.71;99977.19;4365960;32;34392;-86
2022/06/11 04:46:12;;;;;;;9.48;6.65;;;;;;;22.06;56.69;99981.47;4365439;32;33838;-85
2022/06/11 04:48:43;;;;;;;8.32;6.43;;;;;;;21.71;57.02;99990.56;4365571;32;33354;-86
2022/06/11 04:51:15;;;;;;;8.80;7.00;;;;;;;21.82;57.06;99985.84;4353199;32;32162;-86
2022/06/11 04:53:44;;;;;;;11.55;7.03;;;;;;;21.95;56.91;99993.72;4353308;32;33152;-86
2022/06/11 04:56:17;;;;;;;10.70;6.60;;;;;;;21.84;56.65;99992.00;4365652;32;33943;-85
2022/06/11 04:58:46;;;;;;;8.73;6.37;;;;;;;21.83;56.54;99988.38;4365417;32;33561;-86
2022/06/11 05:01:14;;;;;;;8.23;6.37;;;;;;;21.85;56.50;100000.13;4365558;32;33631;-86
2022/06/11 05:03:45;;;;;;;10.45;6.97;;;;;;;21.77;56.68;100009.03;4353095;32;32904;-86
2022/06/11 05:06:19;;;;;;;9.82;7.20;;;;;;;22.02;57.12;99999.91;4365163;32;33601;-85
2022/06/11 05:08:47;;;;;;;10.95;7.60;;;;;;;22.04;58.20;100008.03;4353064;32;33083;-86
2022/06/11 05:11:17;;;;;;;13.50;8.00;;;;;;;22.16;57.08;100003.81;4365002;32;32449;-86
2022/06/11 05:13:45;;;;;;;9.85;6.97;;;;;;;22.28;57.71;100011.94;4353014;32;32817;-86
2022/06/11 05:16:17;;;;;;;11.80;6.97;;;;;;;22.37;56.81;100013.06;4365512;32;34078;-86
2022/06/11 05:18:46;;;;;;;9.13;6.62;;;;;;;22.28;56.33;100017.53;4365650;32;34480;-86
2022/06/11 05:21:16;;;;;;;9.48;7.07;;;;;;;22.31;57.22;100026.22;4352953;32;33286;-86
2022/06/11 05:23:47;;;;;;;8.90;6.95;;;;;;;22.42;56.48;100024.25;4365145;32;32958;-86
2022/06/11 05:26:24;;;;;;;9.32;7.32;;;;;;;22.51;56.15;100028.19;4365191;32;34564;-84
2022/06/11 05:28:52;;;;;;;10.70;6.70;;;;;;;22.59;55.83;100029.59;4365180;32;33527;-90
2022/06/11 05:31:22;;;;;;;10.20;6.70;;;;;;;22.51;55.40;100030.97;4365308;32;33982;-86
2022/06/11 05:33:50;;;;;;;11.30;6.97;;;;;;;22.50;55.41;100023.72;4365559;32;34306;-86
2022/06/11 05:36:20;;;;;;;8.30;6.72;;;;;;;22.55;55.36;100031.25;4365096;32;34896;-88
2022/06/11 05:38:48;;;;;;;10.77;7.57;;;;;;;22.55;55.80;100029.31;4364805;32;32042;-86
2022/06/11 05:41:18;;;;;;;10.98;7.53;;;;;;;22.60;56.63;100032.09;4352861;32;32235;-86
2022/06/11 05:43:46;;;;;;;10.73;8.15;;;;;;;22.62;56.70;100041.06;4364881;32;33891;-78
2022/06/11 05:46:20;;;;;;;10.05;7.15;;;;;;;22.60;56.92;100028.47;4365123;32;33832;-82
2022/06/11 05:48:53;;;;;;;9.52;7.37;;;;;;;22.63;56.76;100037.13;4352852;32;32101;-85
2022/06/11 05:51:34;;;;;;;9.38;7.22;;;;;;;22.71;56.61;100037.69;4365155;32;33824;-85
2022/06/11 05:54:15;;;;;;;10.73;7.32;;;;;;;22.66;57.08;100030.16;4364959;32;33104;-87
2022/06/11 05:56:43;;;;;;;11.60;7.87;;;;;;;22.77;56.59;100026.19;4364983;32;33946;-86
2022/06/11 05:59:23;;;;;;;10.00;7.55;;;;;;;22.85;56.83;100038.81;4353007;32;34291;-86
2022/06/11 06:01:51;;;;;;;11.25;7.25;;;;;;;22.84;57.04;100040.78;4365031;32;34086;-86
2022/06/11 06:04:19;;;;;;;9.18;6.90;;;;;;;22.94;56.70;100043.56;4365157;32;35160;-85
2022/06/11 06:06:47;;;;;;;12.18;7.57;;;;;;;22.97;56.30;100047.75;4352586;32;32900;-87
2022/06/11 06:09:15;;;;;;;11.27;7.75;;;;;;;22.92;56.90;100056.16;4363174;32;33861;-83
2022/06/11 06:11:45;;;;;;;12.27;7.50;;;;;;;23.05;56.91;100052.78;4363846;32;32044;-85
2022/06/11 06:14:13;;;;;;;10.80;7.00;;;;;;;23.12;57.01;100052.50;4364475;32;34383;-79
2022/06/11 06:16:40;;;;;;;11.23;7.12;;;;;;;23.12;56.16;100052.50;4350155;32;32022;-79
2022/06/11 06:19:08;;;;;;;11.18;7.65;;;;;;;23.10;55.71;100041.59;4352295;32;33762;-79
2022/06/11 06:21:37;;;;;;;8.30;7.05;;;;;;;23.30;55.30;100047.16;4364563;32;34264;-80
2022/06/11 06:24:06;;;;;;;8.85;7.37;;;;;;;23.41;55.18;100044.28;4363965;32;34194;-79
2022/06/11 06:26:34;;;;;;;11.05;6.95;;;;;;;23.27;55.80;100036.50;4352445;32;32433;-79
2022/06/11 06:29:03;;;;;;;8.77;6.40;;;;;;;23.32;55.71;100032.84;4352679;32;33683;-79
2022/06/11 06:31:30;;;;;;;8.27;6.35;;;;;;;22.94;54.61;100037.13;4364854;32;34426;-79
2022/06/11 06:34:01;;;;;;;7.68;5.82;;;;;;;23.25;54.19;100021.94;4365027;32;35467;-80
2022/06/11 06:36:32;;;;;;;9.38;6.03;;;;;;;23.05;54.02;100026.75;4352765;32;32602;-79
2022/06/11 06:39:00;;;;;;;8.32;6.18;;;;;;;23.19;53.50;100027.84;4364549;32;34240;-79
2022/06/11 06:41:28;;;;;;;9.52;5.80;;;;;;;23.43;53.38;100034.47;4352345;32;33310;-79
2022/06/11 06:43:55;;;;;;;8.18;6.70;;;;;;;23.32;52.89;100032.84;4364863;32;34436;-80
2022/06/11 06:46:23;;;;;;;8.70;5.85;;;;;;;23.73;52.26;100047.56;4352460;32;34672;-82
2022/06/11 06:48:51;;;;;;;7.72;6.05;;;;;;;23.83;51.62;100039.12;4351016;32;34146;-79
2022/06/11 06:51:19;;;;;;;14.75;6.95;;;;;;;23.91;51.68;100038.50;4346953;32;32416;-79
2022/06/11 06:53:47;;;;;;;8.38;5.90;;;;;;;24.03;51.91;100043.78;4361576;32;34415;-79
2022/06/11 06:56:14;;;;;;;10.00;6.45;;;;;;;24.04;51.42;100044.63;4361629;32;32585;-78
2022/06/11 06:58:42;;;;;;;7.47;5.85;;;;;;;24.24;51.81;100044.47;4337463;32;33657;-77
2022/06/11 07:01:14;;;;;;;8.23;5.55;;;;;;;24.10;50.45;100043.44;4374185;32;33659;-78
2022/06/11 07:03:42;;;;;;;8.02;5.62;;;;;;;24.22;51.02;100043.91;4361606;32;34321;-79
2022/06/11 07:06:31;;;;;;;9.63;6.03;;;;;;;24.26;50.15;100043.06;4362119;32;33644;-78
2022/06/11 07:08:59;;;;;;;7.65;6.25;;;;;;;24.54;50.75;100041.47;4337526;32;33650;-78
2022/06/11 07:11:26;;;;;;;9.07;6.10;;;;;;;24.50;50.81;100040.37;4374749;32;33426;-78
2022/06/11 07:13:57;;;;;;;8.57;5.97;;;;;;;24.42;50.78;100043.81;4363593;32;34124;-78
2022/06/11 07:16:32;;;;;;;8.32;5.85;;;;;;;24.27;51.28;100041.94;4375937;32;33947;-78
2022/06/11 07:19:03;;;;;;;8.75;6.30;;;;;;;24.46;50.67;100042.09;4363269;32;32899;-77
2022/06/11 07:21:41;;;;;;;11.18;5.55;;;;;;;24.72;50.40;100039.06;4349119;32;33987;-77
2022/06/11 07:24:13;;;;;;;7.45;5.28;;;;;;;25.01;49.99;100039.12;4349048;32;34411;-78
2022/06/11 07:26:48;;;;;;;7.95;5.82;;;;;;;24.71;50.24;100037.37;4336591;32;32489;-77
2022/06/11 07:29:22;;;;;;;9.18;5.72;;;;;;;24.74;50.37;100034.00;4349025;32;34220;-77
2022/06/11 07:31:53;;;;;;;7.18;5.80;;;;;;;24.95;50.35;100038.28;4361010;32;32321;-78
2022/06/11 07:34:21;;;;;;;8.10;5.80;;;;;;;24.69;50.29;100034.06;4336660;32;34126;-77
2022/06/11 07:36:49;;;;;;;11.18;6.45;;;;;;;25.08;49.79;100039.59;4336430;32;32475;-77
2022/06/11 07:39:16;;;;;;;9.63;6.20;;;;;;;25.24;49.25;100041.97;4361297;32;33745;-78
2022/06/11 07:41:44;;;;;;;8.73;6.05;;;;;;;25.12;49.77;100032.25;4349089;32;33847;-78
2022/06/11 07:44:12;;;;;;;7.68;5.80;;;;;;;25.36;49.12;100024.66;4348879;32;34517;-77
2022/06/11 07:46:39;;;;;;;9.50;5.85;;;;;;;25.35;48.40;100030.63;4348954;32;34052;-78
2022/06/11 07:49:08;;;;;;;8.88;6.25;;;;;;;25.51;48.71;100037.72;4324497;32;32443;-78
2022/06/11 07:51:36;;;;;;;7.25;5.72;;;;;;;25.75;48.75;100035.75;4338286;32;33903;-79
2022/06/11 07:54:04;;;;;;;10.65;6.28;;;;;;;25.69;48.00;100042.56;4338258;32;34512;-78
2022/06/11 07:56:32;;;;;;;7.82;5.40;;;;;;;25.82;48.05;100038.19;4338557;32;33965;-78
2022/06/11 07:59:00;;;;;;;7.90;6.10;;;;;;;25.85;47.44;100040.41;4338387;32;32356;-78
2022/06/11 08:01:28;;;;;;;9.82;5.60;;;;;;;25.98;48.33;100038.84;4350527;32;34797;-78
2022/06/11 08:03:55;;;;;;;8.02;5.97;;;;;;;25.84;47.51;100042.38;4350198;32;34432;-78
2022/06/11 08:06:26;;;;;;;7.72;5.60;;;;;;;26.00;47.91;100042.19;4338769;32;33900;-77
2022/06/11 08:08:53;;;;;;;9.35;5.20;;;;;;;26.13;46.70;100047.03;4350552;32;33409;-78
2022/06/11 08:11:23;;;;;;;7.35;5.43;;;;;;;26.32;47.58;100045.09;4338899;32;33707;-78
2022/06/11 08:13:51;;;;;;;7.32;5.20;;;;;;;26.47;47.70;100036.41;4363923;32;34413;-78
2022/06/11 08:16:19;;;;;;;7.00;4.97;;;;;;;26.55;45.62;100032.91;4346033;32;33884;-77
2022/06/11 08:18:47;;;;;;;8.48;5.62;;;;;;;26.25;45.92;100037.00;4365761;32;33574;-77
2022/06/11 08:21:14;;;;;;;8.50;5.30;;;;;;;26.19;45.60;100038.22;4353443;32;34578;-77
2022/06/11 08:23:45;;;;;;;7.53;5.47;;;;;;;26.65;45.67;100025.44;4365502;32;35183;-79
2022/06/11 08:26:13;;;;;;;8.15;5.25;;;;;;;26.72;45.17;100025.84;4353332;32;32541;-78
2022/06/11 08:28:41;;;;;;;8.10;5.05;;;;;;;26.85;44.86;100025.91;4365860;32;33811;-77
2022/06/11 08:31:08;;;;;;;6.72;4.93;;;;;;;26.90;43.54;100028.62;4353356;32;33921;-78
2022/06/11 08:33:36;;;;;;;7.43;5.20;;;;;;;27.04;44.63;100020.25;4353423;32;34234;-78
2022/06/11 08:36:08;;;;;;;7.47;4.75;;;;;;;27.33;44.21;100019.94;4354080;32;34773;-78
2022/06/11 08:38:36;;;;;;;7.70;5.18;;;;;;;27.11;43.99;100023.50;4365453;32;32801;-78
2022/06/11 08:41:10;;;;;;;9.23;4.93;;;;;;;27.36;43.96;100024.13;4352850;32;34587;-82
2022/06/11 08:43:41;;;;;;;8.23;5.20;;;;;;;27.43;43.13;100030.19;4364056;32;34483;-85
2022/06/11 08:46:13;;;;;;;7.25;5.03;;;;;;;27.70;42.94;100018.94;4363394;32;33109;-84
2022/06/11 08:49:08;;;;;;;11.77;5.60;;;;;;;27.74;43.27;100019.97;4365232;32;32021;-78
2022/06/11 08:51:53;;;;;;;6.93;5.07;;;;;;;27.97;43.24;100015.22;4367067;32;33646;-82
2022/06/11 08:54:33;;;;;;;6.62;4.87;;;;;;;28.16;43.16;100015.06;4337908;32;34902;-83
2022/06/11 08:57:22;;;;;;;9.48;4.90;;;;;;;28.02;41.82;100023.56;4338298;32;32942;-84
2022/06/11 09:00:05;;;;;;;6.95;4.80;;;;;;;27.78;42.46;100011.72;4350650;32;32076;-83
2022/06/11 09:02:41;;;;;;;10.00;4.82;;;;;;;28.18;42.44;100007.13;4363144;32;33716;-84
2022/06/11 09:05:21;;;;;;;7.62;5.20;;;;;;;28.13;41.44;100015.72;4350262;32;34481;-84
2022/06/11 09:08:08;;;;;;;7.90;4.80;;;;;;;28.60;41.37;100014.28;4350345;32;34612;-83
2022/06/11 09:10:35;;;;;;;10.32;5.25;;;;;;;28.66;41.73;100010.19;4350638;32;34479;-84
2022/06/11 09:13:28;;;;;;;6.12;4.82;;;;;;;28.88;41.13;100005.72;4338246;32;33122;-84
2022/06/11 09:16:17;;;;;;;10.13;5.45;;;;;;;28.96;40.44;100008.59;4350685;32;35370;-83
2022/06/11 09:19:04;;;;;;;7.30;4.93;;;;;;;28.95;41.82;100004.09;4350418;32;34599;-82
2022/06/11 09:21:38;;;;;;;7.62;4.40;;;;;;;29.05;40.42;100014.31;4338210;32;33107;-83
2022/06/11 09:24:27;;;;;;;7.72;4.57;;;;;;;28.93;39.84;99999.94;4350498;32;34765;-83
2022/06/11 09:27:05;;;;;;;7.03;5.03;;;;;;;29.07;40.57;99995.84;4338050;32;34066;-83
2022/06/11 09:29:45;;;;;;;6.28;4.95;;;;;;;28.86;39.84;100003.22;4350310;32;32415;-83
2022/06/11 09:32:17;;;;;;;7.28;5.15;;;;;;;28.91;40.52;100005.91;4338168;32;31924;-83
2022/06/11 09:34:51;;;;;;;8.48;5.15;;;;;;;28.90;39.02;100004.22;4338162;32;32383;-83
2022/06/11 09:37:45;;;;;;;7.43;4.53;;;;;;;28.66;39.69;99998.88;4350435;32;34611;-83
2022/06/11 09:40:33;;;;;;;6.47;4.60;;;;;;;28.89;39.45;99996.91;4362487;32;32622;-82
2022/06/11 09:43:12;;;;;;;6.07;4.25;;;;;;;29.17;39.55;99995.59;4362503;32;32988;-83
2022/06/11 09:46:24;;;;;;;8.63;4.72;;;;;;;28.83;38.76;100001.03;4349918;32;33945;-82
2022/06/11 09:48:55;;;;;;;7.05;4.45;;;;;;;29.15;38.93;100000.72;4358946;32;34630;-82
2022/06/11 09:51:36;;;;;;;6.90;4.40;;;;;;;29.32;38.12;99996.28;4337889;32;32613;-82
2022/06/11 09:54:17;;;;;;;;;;;;;;;29.17;38.25;99987.09;4338730;32;32145;-83
2022/06/11 09:57:17;;;;;;;6.07;4.47;;;;;;;29.24;38.26;99989.47;4337782;32;33391;-82
2022/06/11 09:59:48;;;;;;;6.15;4.70;;;;;;;28.80;38.64;99996.00;4350113;32;34327;-82
2022/06/11 10:02:28;;;;;;;7.85;5.07;;;;;;;28.72;39.83;99999.59;4350174;32;34851;-82
2022/06/11 10:04:58;;;;;;;6.90;5.10;;;;;;;29.12;40.18;99990.06;4351537;32;34485;-82
2022/06/11 10:07:31;;;;;;;5.85;4.30;;;;;;;29.09;39.50;99999.19;4350172;32;32211;-82
2022/06/11 10:10:22;;;;;;;7.10;4.68;;;;;;;29.25;38.44;99990.28;4350104;32;34393;-84
2022/06/11 10:12:55;;;;;;;6.30;4.32;;;;;;;29.14;38.21;99990.56;4337735;32;33967;-83
2022/06/11 10:15:28;;;;;;;7.32;4.40;;;;;;;28.97;39.34;99984.81;4350216;32;33522;-82
2022/06/11 10:18:13;;;;;;;10.10;4.97;;;;;;;29.15;38.31;99985.75;4362503;32;33425;-82
2022/06/11 10:20:47;;;;;;;6.93;4.60;;;;;;;28.96;38.30;99994.47;4349978;32;32927;-82
2022/06/11 10:23:35;;;;;;;5.80;4.28;;;;;;;29.05;38.36;99981.22;4350124;32;33987;-83
2022/06/11 10:26:42;;;;;;;10.18;4.50;;;;;;;28.99;38.27;99987.34;4337991;32;33570;-83
2022/06/11 10:29:28;;;;;;;10.80;4.87;;;;;;;28.86;38.39;99983.44;4338635;32;32323;-82
2022/06/11 10:32:07;;;;;;;9.23;5.05;;;;;;;28.98;38.86;99985.66;4338250;32;34647;-83
2022/06/11 10:34:37;;;;;;;7.53;4.97;;;;;;;29.18;39.06;99980.28;4350084;32;34431;-83
2022/06/11 10:37:08;;;;;;;7.18;4.45;;;;;;;29.04;39.22;99978.72;4350249;32;33582;-83
2022/06/11 10:40:05;;;;;;;7.22;4.07;;;;;;;29.27;38.65;99973.81;4350038;32;34472;-82
2022/06/11 10:42:53;;;;;;;7.05;4.05;;;;;;;29.38;37.90;99980.84;4349847;32;32959;-83
2022/06/11 10:45:21;;;;;;;6.10;4.47;;;;;;;28.81;37.74;99975.91;4350057;32;33986;-82
2022/06/11 10:47:51;;;;;;;7.70;4.62;;;;;;;28.78;38.72;99976.53;4337901;32;34205;-82
2022/06/11 10:50:23;;;;;;;6.28;4.40;;;;;;;28.57;39.12;99974.59;4349851;32;34475;-83
2022/06/11 10:53:13;;;;;;;7.75;4.03;;;;;;;28.74;39.49;99972.69;4337929;32;34252;-82
2022/06/11 10:55:49;;;;;;;7.43;4.55;;;;;;;28.22;39.92;99979.13;4350120;32;33977;-83
2022/06/11 10:58:40;;;;;;;6.47;4.20;;;;;;;28.46;40.61;99980.50;4337672;32;33035;-83
2022/06/11 11:01:17;;;;;;;5.65;4.25;;;;;;;28.08;40.21;99982.78;4350000;32;33939;-83
2022/06/11 11:03:58;;;;;;;7.00;4.30;;;;;;;28.11;39.37;99968.06;4337829;32;33779;-82
2022/06/11 11:06:33;;;;;;;8.20;4.00;;;;;;;28.05;39.35;99979.78;4350645;32;33937;-82
2022/06/11 11:09:14;;;;;;;6.82;4.00;;;;;;;27.64;39.85;99977.87;4349796;32;33623;-82
2022/06/11 11:11:45;;;;;;;7.32;3.97;;;;;;;27.76;40.03;99974.53;4362078;32;33686;-82
2022/06/11 11:14:16;;;;;;;9.45;4.47;;;;;;;27.82;39.67;99976.09;4350013;32;35175;-82
2022/06/11 11:16:48;;;;;;;8.57;4.60;;;;;;;28.07;39.21;99971.81;4337376;32;33354;-82
2022/06/11 11:19:23;;;;;;;7.95;4.45;;;;;;;28.08;40.40;99979.97;4361912;32;33745;-82
2022/06/11 11:21:58;;;;;;;8.00;4.40;;;;;;;28.01;40.51;99973.94;4362183;32;33960;-82
2022/06/11 11:24:45;;;;;;;9.38;4.10;;;;;;;27.93;40.51;99965.41;4336843;32;34388;-83
2022/06/11 11:27:22;;;;;;;8.02;4.90;;;;;;;27.96;39.92;99959.09;4361802;32;33820;-83
2022/06/11 11:29:53;;;;;;;6.60;3.85;;;;;;;28.27;41.42;99954.44;4349607;32;34118;-82
2022/06/11 11:32:27;;;;;;;7.93;4.32;;;;;;;28.24;39.27;99957.06;4337220;32;32571;-82
2022/06/11 11:34:55;;;;;;;7.25;3.42;;;;;;;28.46;38.80;99960.72;4363293;32;35318;-81
2022/06/11 11:37:26;;;;;;;6.72;4.18;;;;;;;28.17;38.46;99949.84;4337379;32;33649;-82
2022/06/11 11:39:56;;;;;;;7.97;4.30;;;;;;;28.73;39.16;99950.41;4349221;32;31934;-82
2022/06/11 11:42:36;;;;;;;6.68;3.78;;;;;;;28.66;39.41;99941.56;4363187;32;34678;-82
2022/06/11 11:45:49;;;;;;;6.12;3.67;;;;;;;28.26;38.17;99941.47;4351906;32;34490;-82
2022/06/11 11:48:30;;;;;;;6.03;3.83;;;;;;;28.48;37.27;99938.66;4339172;32;34609;-81
2022/06/11 11:51:05;;;;;;;6.72;4.03;;;;;;;28.51;37.57;99932.37;4351925;32;33298;-82
2022/06/11 11:53:46;;;;;;;5.22;3.62;;;;;;;28.60;37.28;99931.59;4351940;32;33877;-82
2022/06/11 11:56:39;;;;;;;5.53;3.55;;;;;;;29.01;37.02;99934.16;4351662;32;34344;-83
2022/06/11 11:59:15;;;;;;;5.35;3.40;;;;;;;29.28;36.21;99927.41;4351601;32;33458;-83
2022/06/11 12:01:44;;;;;;;8.27;3.83;;;;;;;29.52;35.72;99933.50;4351801;32;34330;-82
2022/06/11 12:04:18;;;;;;;5.25;3.58;;;;;;;29.63;35.68;99934.88;4339729;32;32286;-83